sensor_id;sensor_type;location;lat;lon;timestamp;P1;durP1;ratioP1;P2;durP2;ratioP2
35693;SDS011;21812;55.536;37.664;2023-04-25T00:01:37;24.08;;;6.32;;
35693;SDS011;21812;55.536;37.664;2023-04-25T00:04:03;10.63;;;6.22;;
35693;SDS011;21812;55.536;37.664;2023-04-25T00:06:31;9.73;;;5.35;;
35693;SDS011;21812;55.536;37.664;2023-04-25T00:08:58;11.65;;;4.90;;
35693;SDS011;21812;55.536;37.664;2023-04-25T00:11:24;10.57;;;5.75;;
35693;SDS011;21812;55.536;37.664;2023-04-25T00:13:49;16.92;;;6.50;;
35693;SDS011;21812;55.536;37.664;2023-04-25T00:16:19;11.40;;;5.90;;
35693;SDS011;21812;55.536;37.664;2023-04-25T00:18:45;10.32;;;6.60;;
35693;SDS011;21812;55.536;37.664;2023-04-25T00:21:17;10.07;;;6.10;;
35693;SDS011;21812;55.536;37.664;2023-04-25T00:23:45;9.15;;;5.43;;
35693;SDS011;21812;55.536;37.664;2023-04-25T00:26:12;11.13;;;4.63;;
35693;SDS011;21812;55.536;37.664;2023-04-25T00:28:38;9.68;;;5.15;;
35693;SDS011;21812;55.536;37.664;2023-04-25T00:31:05;12.90;;;5.85;;
35693;SDS011;21812;55.536;37.664;2023-04-25T00:33:31;13.60;;;6.15;;
35693;SDS011;21812;55.536;37.664;2023-04-25T00:35:56;11.65;;;5.72;;
35693;SDS011;21812;55.536;37.664;2023-04-25T00:38:22;11.07;;;5.97;;
35693;SDS011;21812;55.536;37.664;2023-04-25T00:40:49;10.30;;;7.20;;
35693;SDS011;21812;55.536;37.664;2023-04-25T00:43:15;11.77;;;6.82;;
35693;SDS011;21812;55.536;37.664;2023-04-25T00:45:40;11.98;;;6.65;;
35693;SDS011;21812;55.536;37.664;2023-04-25T00:48:08;14.13;;;6.35;;
35693;SDS011;21812;55.536;37.664;2023-04-25T00:50:34;14.18;;;4.95;;
35693;SDS011;21812;55.536;37.664;2023-04-25T00:53:01;11.88;;;5.85;;
35693;SDS011;21812;55.536;37.664;2023-04-25T00:55:28;8.52;;;6.40;;
35693;SDS011;21812;55.536;37.664;2023-04-25T00:57:54;11.75;;;6.10;;
35693;SDS011;21812;55.536;37.664;2023-04-25T01:00:20;7.70;;;5.45;;
35693;SDS011;21812;55.536;37.664;2023-04-25T01:02:46;10.77;;;5.95;;
35693;SDS011;21812;55.536;37.664;2023-04-25T01:05:12;12.48;;;6.18;;
35693;SDS011;21812;55.536;37.664;2023-04-25T01:07:38;12.35;;;6.60;;
35693;SDS011;21812;55.536;37.664;2023-04-25T01:10:06;14.10;;;7.10;;
35693;SDS011;21812;55.536;37.664;2023-04-25T01:12:33;15.00;;;6.03;;
35693;SDS011;21812;55.536;37.664;2023-04-25T01:14:59;20.88;;;7.90;;
35693;SDS011;21812;55.536;37.664;2023-04-25T01:17:25;9.05;;;5.75;;
35693;SDS011;21812;55.536;37.664;2023-04-25T01:19:51;13.07;;;6.93;;
35693;SDS011;21812;55.536;37.664;2023-04-25T01:22:16;18.08;;;7.07;;
35693;SDS011;21812;55.536;37.664;2023-04-25T01:24:43;15.80;;;6.40;;
35693;SDS011;21812;55.536;37.664;2023-04-25T01:27:09;12.32;;;6.63;;
35693;SDS011;21812;55.536;37.664;2023-04-25T01:29:35;15.18;;;7.28;;
35693;SDS011;21812;55.536;37.664;2023-04-25T01:32:02;13.15;;;6.93;;
35693;SDS011;21812;55.536;37.664;2023-04-25T01:34:28;14.43;;;6.78;;
35693;SDS011;21812;55.536;37.664;2023-04-25T01:36:57;10.48;;;6.80;;
35693;SDS011;21812;55.536;37.664;2023-04-25T01:39:25;15.23;;;7.28;;
35693;SDS011;21812;55.536;37.664;2023-04-25T01:41:51;9.98;;;6.32;;
35693;SDS011;21812;55.536;37.664;2023-04-25T01:44:16;19.30;;;8.27;;
35693;SDS011;21812;55.536;37.664;2023-04-25T01:46:42;12.15;;;6.75;;
35693;SDS011;21812;55.536;37.664;2023-04-25T01:49:10;14.30;;;7.25;;
35693;SDS011;21812;55.536;37.664;2023-04-25T01:51:36;12.52;;;7.25;;
35693;SDS011;21812;55.536;37.664;2023-04-25T01:54:02;15.20;;;6.88;;
35693;SDS011;21812;55.536;37.664;2023-04-25T01:56:32;13.85;;;6.75;;
35693;SDS011;21812;55.536;37.664;2023-04-25T01:58:59;14.40;;;6.13;;
35693;SDS011;21812;55.536;37.664;2023-04-25T02:01:41;13.23;;;6.95;;
35693;SDS011;21812;55.536;37.664;2023-04-25T02:04:23;11.32;;;7.03;;
35693;SDS011;21812;55.536;37.664;2023-04-25T02:06:50;11.43;;;6.45;;
35693;SDS011;21812;55.536;37.664;2023-04-25T02:09:16;13.80;;;5.57;;
35693;SDS011;21812;55.536;37.664;2023-04-25T02:11:47;10.60;;;5.72;;
35693;SDS011;21812;55.536;37.664;2023-04-25T02:14:24;6.82;;;5.20;;
35693;SDS011;21812;55.536;37.664;2023-04-25T02:17:00;10.23;;;5.47;;
35693;SDS011;21812;55.536;37.664;2023-04-25T02:19:25;9.95;;;6.47;;
35693;SDS011;21812;55.536;37.664;2023-04-25T02:21:51;11.68;;;5.50;;
35693;SDS011;21812;55.536;37.664;2023-04-25T02:24:17;8.82;;;5.20;;
35693;SDS011;21812;55.536;37.664;2023-04-25T02:26:43;13.80;;;5.22;;
35693;SDS011;21812;55.536;37.664;2023-04-25T02:29:09;7.18;;;4.43;;
35693;SDS011;21812;55.536;37.664;2023-04-25T02:31:35;13.38;;;5.53;;
35693;SDS011;21812;55.536;37.664;2023-04-25T02:34:01;15.55;;;6.63;;
35693;SDS011;21812;55.536;37.664;2023-04-25T02:36:27;8.38;;;6.85;;
35693;SDS011;21812;55.536;37.664;2023-04-25T02:38:55;12.10;;;6.53;;
35693;SDS011;21812;55.536;37.664;2023-04-25T02:41:21;11.10;;;5.97;;
35693;SDS011;21812;55.536;37.664;2023-04-25T02:43:47;15.27;;;6.43;;
35693;SDS011;21812;55.536;37.664;2023-04-25T02:46:13;10.45;;;6.50;;
35693;SDS011;21812;55.536;37.664;2023-04-25T02:48:39;7.75;;;5.35;;
35693;SDS011;21812;55.536;37.664;2023-04-25T02:51:05;7.47;;;5.38;;
35693;SDS011;21812;55.536;37.664;2023-04-25T02:53:31;15.68;;;5.93;;
35693;SDS011;21812;55.536;37.664;2023-04-25T02:55:56;10.52;;;6.45;;
35693;SDS011;21812;55.536;37.664;2023-04-25T02:58:24;12.52;;;7.28;;
35693;SDS011;21812;55.536;37.664;2023-04-25T03:00:52;9.10;;;5.25;;
35693;SDS011;21812;55.536;37.664;2023-04-25T03:03:18;7.88;;;4.45;;
35693;SDS011;21812;55.536;37.664;2023-04-25T03:05:50;7.70;;;5.25;;
35693;SDS011;21812;55.536;37.664;2023-04-25T03:08:20;8.20;;;6.03;;
35693;SDS011;21812;55.536;37.664;2023-04-25T03:10:46;8.40;;;5.90;;
35693;SDS011;21812;55.536;37.664;2023-04-25T03:13:14;6.88;;;5.13;;
35693;SDS011;21812;55.536;37.664;2023-04-25T03:15:42;7.90;;;5.47;;
35693;SDS011;21812;55.536;37.664;2023-04-25T03:18:07;13.93;;;6.47;;
35693;SDS011;21812;55.536;37.664;2023-04-25T03:20:33;10.15;;;5.85;;
35693;SDS011;21812;55.536;37.664;2023-04-25T03:22:59;10.27;;;5.78;;
35693;SDS011;21812;55.536;37.664;2023-04-25T03:25:26;9.45;;;5.22;;
35693;SDS011;21812;55.536;37.664;2023-04-25T03:27:52;8.80;;;4.90;;
35693;SDS011;21812;55.536;37.664;2023-04-25T03:30:18;7.90;;;5.28;;
35693;SDS011;21812;55.536;37.664;2023-04-25T03:32:44;7.18;;;4.88;;
35693;SDS011;21812;55.536;37.664;2023-04-25T03:35:13;10.27;;;6.18;;
35693;SDS011;21812;55.536;37.664;2023-04-25T03:37:39;14.98;;;7.03;;
35693;SDS011;21812;55.536;37.664;2023-04-25T03:40:06;14.45;;;8.00;;
35693;SDS011;21812;55.536;37.664;2023-04-25T03:42:52;13.18;;;5.70;;
35693;SDS011;21812;55.536;37.664;2023-04-25T03:45:18;11.02;;;6.47;;
35693;SDS011;21812;55.536;37.664;2023-04-25T03:47:44;19.67;;;9.13;;
35693;SDS011;21812;55.536;37.664;2023-04-25T03:50:10;8.52;;;6.78;;
35693;SDS011;21812;55.536;37.664;2023-04-25T03:52:36;11.18;;;6.05;;
35693;SDS011;21812;55.536;37.664;2023-04-25T03:55:02;11.30;;;7.15;;
35693;SDS011;21812;55.536;37.664;2023-04-25T03:57:31;15.27;;;6.47;;
35693;SDS011;21812;55.536;37.664;2023-04-25T03:59:57;17.25;;;7.10;;
35693;SDS011;21812;55.536;37.664;2023-04-25T04:02:23;16.95;;;10.30;;
35693;SDS011;21812;55.536;37.664;2023-04-25T04:04:51;17.92;;;8.35;;
35693;SDS011;21812;55.536;37.664;2023-04-25T04:07:17;14.77;;;6.85;;
35693;SDS011;21812;55.536;37.664;2023-04-25T04:09:46;15.93;;;7.60;;
35693;SDS011;21812;55.536;37.664;2023-04-25T04:12:17;18.83;;;8.57;;
35693;SDS011;21812;55.536;37.664;2023-04-25T04:14:43;21.48;;;7.22;;
35693;SDS011;21812;55.536;37.664;2023-04-25T04:17:09;17.27;;;6.40;;
35693;SDS011;21812;55.536;37.664;2023-04-25T04:19:35;10.35;;;7.00;;
35693;SDS011;21812;55.536;37.664;2023-04-25T04:22:30;45.03;;;13.40;;
35693;SDS011;21812;55.536;37.664;2023-04-25T04:25:00;130.93;;;33.47;;
35693;SDS011;21812;55.536;37.664;2023-04-25T04:27:45;57.03;;;16.15;;
35693;SDS011;21812;55.536;37.664;2023-04-25T04:30:26;58.53;;;14.45;;
35693;SDS011;21812;55.536;37.664;2023-04-25T04:33:00;12.32;;;6.93;;
35693;SDS011;21812;55.536;37.664;2023-04-25T04:35:26;12.75;;;7.22;;
35693;SDS011;21812;55.536;37.664;2023-04-25T04:37:53;18.42;;;7.55;;
35693;SDS011;21812;55.536;37.664;2023-04-25T04:40:20;17.95;;;8.13;;
35693;SDS011;21812;55.536;37.664;2023-04-25T04:43:09;21.75;;;7.82;;
35693;SDS011;21812;55.536;37.664;2023-04-25T04:46:02;18.13;;;7.13;;
35693;SDS011;21812;55.536;37.664;2023-04-25T04:48:52;15.52;;;6.20;;
35693;SDS011;21812;55.536;37.664;2023-04-25T04:51:41;14.90;;;6.63;;
35693;SDS011;21812;55.536;37.664;2023-04-25T04:54:29;8.25;;;4.95;;
35693;SDS011;21812;55.536;37.664;2023-04-25T04:57:18;13.20;;;5.63;;
35693;SDS011;21812;55.536;37.664;2023-04-25T05:00:16;8.82;;;5.43;;
35693;SDS011;21812;55.536;37.664;2023-04-25T05:02:43;14.15;;;5.30;;
35693;SDS011;21812;55.536;37.664;2023-04-25T05:05:37;15.10;;;5.05;;
35693;SDS011;21812;55.536;37.664;2023-04-25T05:08:30;11.13;;;4.70;;
35693;SDS011;21812;55.536;37.664;2023-04-25T05:11:27;10.65;;;4.85;;
35693;SDS011;21812;55.536;37.664;2023-04-25T05:14:06;9.07;;;4.22;;
35693;SDS011;21812;55.536;37.664;2023-04-25T05:16:58;8.35;;;4.57;;
35693;SDS011;21812;55.536;37.664;2023-04-25T05:19:44;9.05;;;5.53;;
35693;SDS011;21812;55.536;37.664;2023-04-25T05:22:35;10.95;;;5.30;;
35693;SDS011;21812;55.536;37.664;2023-04-25T05:25:33;7.70;;;4.70;;
35693;SDS011;21812;55.536;37.664;2023-04-25T05:28:15;13.55;;;6.18;;
35693;SDS011;21812;55.536;37.664;2023-04-25T05:31:07;7.57;;;4.88;;
35693;SDS011;21812;55.536;37.664;2023-04-25T05:33:46;10.10;;;4.13;;
35693;SDS011;21812;55.536;37.664;2023-04-25T05:36:12;6.45;;;4.38;;
35693;SDS011;21812;55.536;37.664;2023-04-25T05:38:38;8.50;;;4.68;;
35693;SDS011;21812;55.536;37.664;2023-04-25T05:41:06;12.27;;;7.47;;
35693;SDS011;21812;55.536;37.664;2023-04-25T05:43:46;7.57;;;4.53;;
35693;SDS011;21812;55.536;37.664;2023-04-25T05:46:33;8.13;;;4.32;;
35693;SDS011;21812;55.536;37.664;2023-04-25T05:49:10;6.40;;;4.25;;
35693;SDS011;21812;55.536;37.664;2023-04-25T05:51:55;6.78;;;4.05;;
35693;SDS011;21812;55.536;37.664;2023-04-25T05:54:39;9.30;;;4.57;;
35693;SDS011;21812;55.536;37.664;2023-04-25T05:57:04;13.77;;;6.18;;
35693;SDS011;21812;55.536;37.664;2023-04-25T05:59:31;10.40;;;5.05;;
35693;SDS011;21812;55.536;37.664;2023-04-25T06:01:57;9.43;;;5.53;;
35693;SDS011;21812;55.536;37.664;2023-04-25T06:04:23;8.50;;;4.88;;
35693;SDS011;21812;55.536;37.664;2023-04-25T06:06:49;7.25;;;3.72;;
35693;SDS011;21812;55.536;37.664;2023-04-25T06:09:15;6.65;;;4.60;;
35693;SDS011;21812;55.536;37.664;2023-04-25T06:11:41;6.65;;;3.83;;
35693;SDS011;21812;55.536;37.664;2023-04-25T06:14:07;6.07;;;3.67;;
35693;SDS011;21812;55.536;37.664;2023-04-25T06:16:36;6.95;;;5.10;;
35693;SDS011;21812;55.536;37.664;2023-04-25T06:19:01;9.77;;;4.47;;
35693;SDS011;21812;55.536;37.664;2023-04-25T06:21:27;9.43;;;4.95;;
35693;SDS011;21812;55.536;37.664;2023-04-25T06:23:53;12.75;;;5.43;;
35693;SDS011;21812;55.536;37.664;2023-04-25T06:26:22;27.13;;;5.43;;
35693;SDS011;21812;55.536;37.664;2023-04-25T06:28:48;32.90;;;5.40;;
35693;SDS011;21812;55.536;37.664;2023-04-25T06:31:14;7.85;;;4.03;;
35693;SDS011;21812;55.536;37.664;2023-04-25T06:33:42;8.30;;;4.50;;
35693;SDS011;21812;55.536;37.664;2023-04-25T06:36:08;8.93;;;4.22;;
35693;SDS011;21812;55.536;37.664;2023-04-25T06:38:35;7.95;;;3.75;;
35693;SDS011;21812;55.536;37.664;2023-04-25T06:41:01;6.70;;;4.20;;
35693;SDS011;21812;55.536;37.664;2023-04-25T06:43:32;5.90;;;3.42;;
35693;SDS011;21812;55.536;37.664;2023-04-25T06:46:01;5.53;;;3.75;;
35693;SDS011;21812;55.536;37.664;2023-04-25T06:48:29;11.27;;;5.75;;
35693;SDS011;21812;55.536;37.664;2023-04-25T06:50:55;13.60;;;5.53;;
35693;SDS011;21812;55.536;37.664;2023-04-25T06:53:22;5.85;;;3.50;;
35693;SDS011;21812;55.536;37.664;2023-04-25T06:55:54;9.23;;;3.78;;
35693;SDS011;21812;55.536;37.664;2023-04-25T06:58:22;13.35;;;3.95;;
35693;SDS011;21812;55.536;37.664;2023-04-25T07:01:17;8.07;;;3.67;;
35693;SDS011;21812;55.536;37.664;2023-04-25T07:03:43;9.70;;;3.60;;
35693;SDS011;21812;55.536;37.664;2023-04-25T07:06:14;6.82;;;3.33;;
35693;SDS011;21812;55.536;37.664;2023-04-25T07:08:40;14.10;;;3.42;;
35693;SDS011;21812;55.536;37.664;2023-04-25T07:11:06;4.78;;;2.83;;
35693;SDS011;21812;55.536;37.664;2023-04-25T07:13:32;6.35;;;3.05;;
35693;SDS011;21812;55.536;37.664;2023-04-25T07:15:58;10.02;;;3.22;;
35693;SDS011;21812;55.536;37.664;2023-04-25T07:18:27;4.70;;;2.92;;
35693;SDS011;21812;55.536;37.664;2023-04-25T07:20:53;3.40;;;2.97;;
35693;SDS011;21812;55.536;37.664;2023-04-25T07:23:18;15.73;;;3.10;;
35693;SDS011;21812;55.536;37.664;2023-04-25T07:25:45;6.57;;;2.80;;
35693;SDS011;21812;55.536;37.664;2023-04-25T07:28:13;14.93;;;4.55;;
35693;SDS011;21812;55.536;37.664;2023-04-25T07:30:39;10.10;;;3.70;;
35693;SDS011;21812;55.536;37.664;2023-04-25T07:33:04;4.30;;;2.28;;
35693;SDS011;21812;55.536;37.664;2023-04-25T07:35:31;3.80;;;1.88;;
35693;SDS011;21812;55.536;37.664;2023-04-25T07:37:57;11.10;;;3.35;;
35693;SDS011;21812;55.536;37.664;2023-04-25T07:40:24;6.45;;;2.70;;
35693;SDS011;21812;55.536;37.664;2023-04-25T07:42:58;8.63;;;3.13;;
35693;SDS011;21812;55.536;37.664;2023-04-25T07:45:46;13.27;;;2.80;;
35693;SDS011;21812;55.536;37.664;2023-04-25T07:48:17;4.35;;;2.58;;
35693;SDS011;21812;55.536;37.664;2023-04-25T07:50:47;12.63;;;2.63;;
35693;SDS011;21812;55.536;37.664;2023-04-25T07:53:14;8.75;;;2.85;;
35693;SDS011;21812;55.536;37.664;2023-04-25T07:55:50;5.55;;;2.60;;
35693;SDS011;21812;55.536;37.664;2023-04-25T07:58:17;5.22;;;2.80;;
35693;SDS011;21812;55.536;37.664;2023-04-25T08:00:48;6.45;;;2.88;;
35693;SDS011;21812;55.536;37.664;2023-04-25T08:03:32;211.18;;;21.67;;
35693;SDS011;21812;55.536;37.664;2023-04-25T08:05:58;10.05;;;3.22;;
35693;SDS011;21812;55.536;37.664;2023-04-25T08:08:27;9.50;;;3.13;;
35693;SDS011;21812;55.536;37.664;2023-04-25T08:10:52;5.68;;;2.78;;
35693;SDS011;21812;55.536;37.664;2023-04-25T08:13:18;8.30;;;4.07;;
35693;SDS011;21812;55.536;37.664;2023-04-25T08:15:44;11.68;;;7.25;;
35693;SDS011;21812;55.536;37.664;2023-04-25T08:18:10;10.95;;;2.95;;
35693;SDS011;21812;55.536;37.664;2023-04-25T08:20:36;4.47;;;3.72;;
35693;SDS011;21812;55.536;37.664;2023-04-25T08:23:05;4.75;;;2.53;;
35693;SDS011;21812;55.536;37.664;2023-04-25T08:25:59;6.03;;;3.15;;
35693;SDS011;21812;55.536;37.664;2023-04-25T08:28:27;3.95;;;2.60;;
35693;SDS011;21812;55.536;37.664;2023-04-25T08:30:54;3.58;;;2.67;;
35693;SDS011;21812;55.536;37.664;2023-04-25T08:33:20;4.10;;;2.65;;
35693;SDS011;21812;55.536;37.664;2023-04-25T08:35:56;5.85;;;3.13;;
35693;SDS011;21812;55.536;37.664;2023-04-25T08:38:24;4.70;;;2.63;;
35693;SDS011;21812;55.536;37.664;2023-04-25T08:40:50;3.58;;;2.70;;
35693;SDS011;21812;55.536;37.664;2023-04-25T08:43:18;4.88;;;2.58;;
35693;SDS011;21812;55.536;37.664;2023-04-25T08:45:44;14.23;;;4.60;;
35693;SDS011;21812;55.536;37.664;2023-04-25T08:48:19;8.10;;;3.10;;
35693;SDS011;21812;55.536;37.664;2023-04-25T08:50:51;10.98;;;2.90;;
35693;SDS011;21812;55.536;37.664;2023-04-25T08:53:27;4.53;;;2.40;;
35693;SDS011;21812;55.536;37.664;2023-04-25T08:55:58;6.07;;;2.80;;
35693;SDS011;21812;55.536;37.664;2023-04-25T08:58:24;5.45;;;3.53;;
35693;SDS011;21812;55.536;37.664;2023-04-25T09:00:51;4.53;;;2.80;;
35693;SDS011;21812;55.536;37.664;2023-04-25T09:03:19;5.38;;;2.78;;
35693;SDS011;21812;55.536;37.664;2023-04-25T09:05:47;3.20;;;1.92;;
35693;SDS011;21812;55.536;37.664;2023-04-25T09:08:15;5.22;;;2.50;;
35693;SDS011;21812;55.536;37.664;2023-04-25T09:10:41;4.90;;;2.92;;
35693;SDS011;21812;55.536;37.664;2023-04-25T09:13:08;5.55;;;2.40;;
35693;SDS011;21812;55.536;37.664;2023-04-25T09:15:57;7.30;;;2.28;;
35693;SDS011;21812;55.536;37.664;2023-04-25T09:18:43;2.50;;;2.20;;
35693;SDS011;21812;55.536;37.664;2023-04-25T09:21:12;4.10;;;2.33;;
35693;SDS011;21812;55.536;37.664;2023-04-25T09:23:43;2.72;;;1.90;;
35693;SDS011;21812;55.536;37.664;2023-04-25T09:26:13;3.83;;;1.98;;
35693;SDS011;21812;55.536;37.664;2023-04-25T09:28:40;3.58;;;2.65;;
35693;SDS011;21812;55.536;37.664;2023-04-25T09:31:11;4.25;;;3.50;;
35693;SDS011;21812;55.536;37.664;2023-04-25T09:33:44;4.95;;;1.83;;
35693;SDS011;21812;55.536;37.664;2023-04-25T09:36:11;2.85;;;1.80;;
35693;SDS011;21812;55.536;37.664;2023-04-25T09:38:59;4.88;;;1.83;;
35693;SDS011;21812;55.536;37.664;2023-04-25T09:41:33;6.35;;;1.80;;
35693;SDS011;21812;55.536;37.664;2023-04-25T09:44:03;5.05;;;2.00;;
35693;SDS011;21812;55.536;37.664;2023-04-25T09:46:35;3.45;;;1.70;;
35693;SDS011;21812;55.536;37.664;2023-04-25T09:49:19;2.83;;;2.00;;
35693;SDS011;21812;55.536;37.664;2023-04-25T09:51:58;2.85;;;1.77;;
35693;SDS011;21812;55.536;37.664;2023-04-25T09:54:41;3.92;;;1.95;;
35693;SDS011;21812;55.536;37.664;2023-04-25T09:59:44;4.32;;;1.65;;
35693;SDS011;21812;55.536;37.664;2023-04-25T10:02:13;5.43;;;1.98;;
35693;SDS011;21812;55.536;37.664;2023-04-25T10:04:40;3.35;;;1.70;;
35693;SDS011;21812;55.536;37.664;2023-04-25T10:07:26;4.30;;;1.90;;
35693;SDS011;21812;55.536;37.664;2023-04-25T10:09:59;3.78;;;2.20;;
35693;SDS011;21812;55.536;37.664;2023-04-25T10:12:32;3.55;;;2.45;;
35693;SDS011;21812;55.536;37.664;2023-04-25T10:14:58;8.68;;;2.25;;
35693;SDS011;21812;55.536;37.664;2023-04-25T10:17:26;2.33;;;2.13;;
35693;SDS011;21812;55.536;37.664;2023-04-25T10:19:53;5.53;;;2.58;;
35693;SDS011;21812;55.536;37.664;2023-04-25T10:22:23;4.55;;;1.88;;
35693;SDS011;21812;55.536;37.664;2023-04-25T10:24:55;5.28;;;1.80;;
35693;SDS011;21812;55.536;37.664;2023-04-25T10:27:22;3.03;;;1.90;;
35693;SDS011;21812;55.536;37.664;2023-04-25T10:30:05;3.60;;;1.80;;
35693;SDS011;21812;55.536;37.664;2023-04-25T10:32:32;5.88;;;1.80;;
35693;SDS011;21812;55.536;37.664;2023-04-25T10:35:09;4.18;;;1.80;;
35693;SDS011;21812;55.536;37.664;2023-04-25T10:37:36;5.50;;;1.63;;
35693;SDS011;21812;55.536;37.664;2023-04-25T10:40:08;2.88;;;1.30;;
35693;SDS011;21812;55.536;37.664;2023-04-25T10:42:35;1.50;;;1.40;;
35693;SDS011;21812;55.536;37.664;2023-04-25T10:45:01;3.55;;;1.40;;
35693;SDS011;21812;55.536;37.664;2023-04-25T10:47:35;6.05;;;2.17;;
35693;SDS011;21812;55.536;37.664;2023-04-25T10:50:06;2.25;;;1.20;;
35693;SDS011;21812;55.536;37.664;2023-04-25T10:52:33;3.03;;;1.27;;
35693;SDS011;21812;55.536;37.664;2023-04-25T10:54:59;2.20;;;1.80;;
35693;SDS011;21812;55.536;37.664;2023-04-25T10:57:43;5.47;;;1.30;;
35693;SDS011;21812;55.536;37.664;2023-04-25T11:00:13;1.90;;;1.50;;
35693;SDS011;21812;55.536;37.664;2023-04-25T11:02:45;11.40;;;2.70;;
35693;SDS011;21812;55.536;37.664;2023-04-25T11:05:16;6.28;;;1.35;;
35693;SDS011;21812;55.536;37.664;2023-04-25T11:08:00;4.57;;;1.77;;
35693;SDS011;21812;55.536;37.664;2023-04-25T11:10:33;3.72;;;1.20;;
35693;SDS011;21812;55.536;37.664;2023-04-25T11:13:02;4.03;;;1.88;;
35693;SDS011;21812;55.536;37.664;2023-04-25T11:15:28;2.90;;;1.45;;
35693;SDS011;21812;55.536;37.664;2023-04-25T11:17:54;2.05;;;1.45;;
35693;SDS011;21812;55.536;37.664;2023-04-25T11:20:21;2.00;;;1.45;;
35693;SDS011;21812;55.536;37.664;2023-04-25T11:22:47;1.73;;;1.58;;
35693;SDS011;21812;55.536;37.664;2023-04-25T11:25:14;5.43;;;2.40;;
35693;SDS011;21812;55.536;37.664;2023-04-25T11:27:56;5.65;;;1.75;;
35693;SDS011;21812;55.536;37.664;2023-04-25T11:30:24;5.32;;;1.60;;
35693;SDS011;21812;55.536;37.664;2023-04-25T11:32:51;4.75;;;1.70;;
35693;SDS011;21812;55.536;37.664;2023-04-25T11:35:18;2.95;;;1.55;;
35693;SDS011;21812;55.536;37.664;2023-04-25T11:37:45;2.53;;;1.45;;
35693;SDS011;21812;55.536;37.664;2023-04-25T11:40:12;3.70;;;1.70;;
35693;SDS011;21812;55.536;37.664;2023-04-25T11:42:47;2.97;;;1.48;;
35693;SDS011;21812;55.536;37.664;2023-04-25T11:45:13;2.83;;;1.60;;
35693;SDS011;21812;55.536;37.664;2023-04-25T11:47:39;2.70;;;1.88;;
35693;SDS011;21812;55.536;37.664;2023-04-25T11:50:06;3.97;;;1.40;;
35693;SDS011;21812;55.536;37.664;2023-04-25T11:55:09;2.45;;;1.70;;
35693;SDS011;21812;55.536;37.664;2023-04-25T11:57:38;5.25;;;1.77;;
35693;SDS011;21812;55.536;37.664;2023-04-25T12:00:15;2.97;;;1.40;;
35693;SDS011;21812;55.536;37.664;2023-04-25T12:02:44;11.07;;;1.70;;
35693;SDS011;21812;55.536;37.664;2023-04-25T12:05:13;4.30;;;1.48;;
35693;SDS011;21812;55.536;37.664;2023-04-25T12:07:40;4.00;;;2.28;;
35693;SDS011;21812;55.536;37.664;2023-04-25T12:10:07;3.58;;;2.92;;
35693;SDS011;21812;55.536;37.664;2023-04-25T12:12:36;3.25;;;1.50;;
35693;SDS011;21812;55.536;37.664;2023-04-25T12:15:11;4.13;;;1.60;;
35693;SDS011;21812;55.536;37.664;2023-04-25T12:17:46;3.78;;;1.60;;
35693;SDS011;21812;55.536;37.664;2023-04-25T12:20:13;6.35;;;1.70;;
35693;SDS011;21812;55.536;37.664;2023-04-25T12:22:44;3.60;;;1.90;;
35693;SDS011;21812;55.536;37.664;2023-04-25T12:25:12;4.35;;;2.08;;
35693;SDS011;21812;55.536;37.664;2023-04-25T12:27:38;2.67;;;1.73;;
35693;SDS011;21812;55.536;37.664;2023-04-25T12:30:09;5.10;;;1.70;;
35693;SDS011;21812;55.536;37.664;2023-04-25T12:32:36;2.97;;;1.60;;
35693;SDS011;21812;55.536;37.664;2023-04-25T12:35:03;6.22;;;1.95;;
35693;SDS011;21812;55.536;37.664;2023-04-25T12:37:32;3.88;;;2.30;;
35693;SDS011;21812;55.536;37.664;2023-04-25T12:39:57;2.63;;;1.60;;
35693;SDS011;21812;55.536;37.664;2023-04-25T12:42:23;6.35;;;2.40;;
35693;SDS011;21812;55.536;37.664;2023-04-25T12:44:48;7.75;;;2.20;;
35693;SDS011;21812;55.536;37.664;2023-04-25T12:47:14;7.47;;;2.15;;
35693;SDS011;21812;55.536;37.664;2023-04-25T12:49:40;4.05;;;2.63;;
35693;SDS011;21812;55.536;37.664;2023-04-25T12:52:06;5.50;;;2.20;;
35693;SDS011;21812;55.536;37.664;2023-04-25T12:54:32;5.22;;;1.90;;
35693;SDS011;21812;55.536;37.664;2023-04-25T12:56:57;3.72;;;2.20;;
35693;SDS011;21812;55.536;37.664;2023-04-25T12:59:24;4.28;;;2.10;;
35693;SDS011;21812;55.536;37.664;2023-04-25T13:01:50;5.95;;;2.13;;
35693;SDS011;21812;55.536;37.664;2023-04-25T13:04:15;6.95;;;2.28;;
35693;SDS011;21812;55.536;37.664;2023-04-25T13:06:41;3.42;;;2.17;;
35693;SDS011;21812;55.536;37.664;2023-04-25T13:09:07;2.55;;;1.70;;
35693;SDS011;21812;55.536;37.664;2023-04-25T13:11:33;3.17;;;2.30;;
35693;SDS011;21812;55.536;37.664;2023-04-25T13:14:00;5.45;;;2.10;;
35693;SDS011;21812;55.536;37.664;2023-04-25T13:16:26;9.93;;;3.08;;
35693;SDS011;21812;55.536;37.664;2023-04-25T13:18:52;4.80;;;2.30;;
35693;SDS011;21812;55.536;37.664;2023-04-25T13:21:17;5.93;;;2.60;;
35693;SDS011;21812;55.536;37.664;2023-04-25T13:23:43;5.20;;;2.53;;
35693;SDS011;21812;55.536;37.664;2023-04-25T13:26:09;3.33;;;2.25;;
35693;SDS011;21812;55.536;37.664;2023-04-25T13:28:35;4.00;;;1.90;;
35693;SDS011;21812;55.536;37.664;2023-04-25T13:31:01;3.83;;;1.88;;
35693;SDS011;21812;55.536;37.664;2023-04-25T13:33:27;3.15;;;2.03;;
35693;SDS011;21812;55.536;37.664;2023-04-25T13:35:52;4.93;;;2.13;;
35693;SDS011;21812;55.536;37.664;2023-04-25T13:38:22;5.93;;;2.03;;
35693;SDS011;21812;55.536;37.664;2023-04-25T13:40:50;3.15;;;1.80;;
35693;SDS011;21812;55.536;37.664;2023-04-25T13:43:18;4.47;;;2.60;;
35693;SDS011;21812;55.536;37.664;2023-04-25T13:45:45;3.78;;;2.08;;
35693;SDS011;21812;55.536;37.664;2023-04-25T13:48:11;5.43;;;2.22;;
35693;SDS011;21812;55.536;37.664;2023-04-25T13:50:37;2.10;;;1.65;;
35693;SDS011;21812;55.536;37.664;2023-04-25T13:53:02;7.13;;;2.97;;
35693;SDS011;21812;55.536;37.664;2023-04-25T13:55:28;4.13;;;2.03;;
35693;SDS011;21812;55.536;37.664;2023-04-25T13:57:54;3.97;;;2.22;;
35693;SDS011;21812;55.536;37.664;2023-04-25T14:00:19;17.08;;;3.67;;
35693;SDS011;21812;55.536;37.664;2023-04-25T14:02:46;5.32;;;2.55;;
35693;SDS011;21812;55.536;37.664;2023-04-25T14:05:12;7.55;;;2.40;;
35693;SDS011;21812;55.536;37.664;2023-04-25T14:07:38;3.08;;;2.17;;
35693;SDS011;21812;55.536;37.664;2023-04-25T14:10:04;9.30;;;2.15;;
35693;SDS011;21812;55.536;37.664;2023-04-25T14:12:33;5.25;;;2.15;;
35693;SDS011;21812;55.536;37.664;2023-04-25T14:14:59;6.22;;;2.72;;
35693;SDS011;21812;55.536;37.664;2023-04-25T14:17:24;3.05;;;2.00;;
35693;SDS011;21812;55.536;37.664;2023-04-25T14:19:50;11.05;;;3.13;;
35693;SDS011;21812;55.536;37.664;2023-04-25T14:22:16;5.35;;;2.38;;
35693;SDS011;21812;55.536;37.664;2023-04-25T14:24:42;5.82;;;2.45;;
35693;SDS011;21812;55.536;37.664;2023-04-25T14:27:07;6.63;;;2.50;;
35693;SDS011;21812;55.536;37.664;2023-04-25T14:29:33;14.25;;;2.33;;
35693;SDS011;21812;55.536;37.664;2023-04-25T14:32:00;6.75;;;2.25;;
35693;SDS011;21812;55.536;37.664;2023-04-25T14:34:26;8.93;;;2.55;;
35693;SDS011;21812;55.536;37.664;2023-04-25T14:36:52;6.38;;;3.15;;
35693;SDS011;21812;55.536;37.664;2023-04-25T14:39:18;6.25;;;3.17;;
35693;SDS011;21812;55.536;37.664;2023-04-25T14:41:44;4.50;;;2.78;;
35693;SDS011;21812;55.536;37.664;2023-04-25T14:44:10;9.70;;;3.15;;
35693;SDS011;21812;55.536;37.664;2023-04-25T14:46:36;6.25;;;2.63;;
35693;SDS011;21812;55.536;37.664;2023-04-25T14:49:03;31.77;;;6.47;;